createdAt,value
2016-08-04T00:00:07.302Z,8.57
2016-08-04T00:00:15.973Z,8.58
2016-08-04T00:00:24.721Z,8.58
2016-08-04T00:00:33.410Z,8.51
2016-08-04T00:00:42.815Z,8.6
2016-08-04T00:00:52.197Z,8.57
2016-08-04T00:01:00.947Z,8.63
2016-08-04T00:01:09.651Z,8.6
2016-08-04T00:01:18.376Z,8.58
2016-08-04T00:01:27.822Z,8.63
2016-08-04T00:01:36.554Z,8.55
2016-08-04T00:01:45.244Z,8.62
2016-08-04T00:01:54.623Z,8.62
2016-08-04T00:02:03.358Z,8.58
2016-08-04T00:02:12.078Z,8.54
2016-08-04T00:02:20.821Z,8.57
2016-08-04T00:02:29.493Z,8.53
2016-08-04T00:02:38.196Z,8.54
2016-08-04T00:02:46.926Z,8.57
2016-08-04T00:02:55.676Z,8.57
2016-08-04T00:03:05.092Z,8.47
2016-08-04T00:03:13.792Z,8.53
2016-08-04T00:03:22.478Z,8.45
2016-08-04T00:03:31.167Z,8.44
2016-08-04T00:03:40.536Z,8.47
2016-08-04T00:03:49.237Z,8.47
2016-08-04T00:03:58.626Z,8.5
2016-08-04T00:04:08.075Z,8.47
2016-08-04T00:04:16.759Z,8.57
2016-08-04T00:04:25.479Z,8.53
2016-08-04T00:04:42.914Z,8.58
2016-08-04T00:04:53.707Z,8.51
2016-08-04T00:05:02.442Z,8.48
2016-08-04T00:05:11.873Z,8.5
2016-08-04T00:05:20.598Z,8.5
2016-08-04T00:05:29.321Z,8.47
2016-08-04T00:05:38.046Z,8.57
2016-08-04T00:05:46.813Z,8.53
2016-08-04T00:05:55.538Z,8.54
2016-08-04T00:06:04.882Z,8.5
2016-08-04T00:06:13.546Z,8.45
2016-08-04T00:06:22.295Z,8.48
2016-08-04T00:06:31.038Z,8.5
2016-08-04T00:06:39.721Z,8.48
2016-08-04T00:06:48.408Z,8.45
2016-08-04T00:06:57.141Z,8.48
2016-08-04T00:07:05.886Z,8.53
2016-08-04T00:07:14.637Z,8.48
2016-08-04T00:07:23.351Z,8.47
2016-08-04T00:07:32.079Z,8.45
2016-08-04T00:07:41.439Z,8.44
2016-08-04T00:07:50.145Z,8.5
2016-08-04T00:07:58.872Z,8.39
2016-08-04T00:08:08.304Z,8.4
2016-08-04T00:08:17.006Z,8.37
2016-08-04T00:08:25.747Z,8.36
2016-08-04T00:08:35.131Z,8.36
2016-08-04T00:08:43.864Z,8.35
2016-08-04T00:08:52.575Z,8.35
2016-08-04T00:09:01.302Z,8.28
2016-08-04T00:09:10.034Z,8.35
2016-08-04T00:09:18.747Z,8.37
2016-08-04T00:09:28.811Z,8.28
2016-08-04T00:09:37.501Z,8.35
2016-08-04T00:09:46.259Z,8.39
2016-08-04T00:09:54.975Z,8.3
2016-08-04T00:10:04.352Z,8.39
2016-08-04T00:10:13.048Z,8.39
2016-08-04T00:10:23.105Z,8.39
2016-08-04T00:10:31.775Z,8.39
2016-08-04T00:10:40.499Z,8.36
2016-08-04T00:10:49.223Z,8.39
2016-08-04T00:10:57.939Z,8.36
2016-08-04T00:11:06.669Z,8.44
2016-08-04T00:11:15.413Z,8.39
2016-08-04T00:11:24.139Z,8.35
2016-08-04T00:11:32.875Z,8.25
2016-08-04T00:11:41.597Z,8.26
2016-08-04T00:11:50.311Z,8.39
2016-08-04T00:11:59.032Z,8.36
2016-08-04T00:12:07.737Z,8.42
2016-08-04T00:12:16.444Z,8.36
2016-08-04T00:12:25.168Z,8.35
2016-08-04T00:12:33.900Z,8.36
2016-08-04T00:12:42.612Z,8.37
2016-08-04T00:12:51.315Z,8.37
2016-08-04T00:13:00.046Z,8.22
2016-08-04T00:13:08.777Z,8.33
2016-08-04T00:13:17.458Z,8.42
2016-08-04T00:13:26.208Z,8.42
2016-08-04T00:13:34.970Z,8.36
2016-08-04T00:13:44.343Z,8.4
2016-08-04T00:13:53.085Z,8.42
2016-08-04T00:14:01.809Z,8.42
2016-08-04T00:14:11.179Z,8.37
2016-08-04T00:14:20.594Z,8.44
2016-08-04T00:14:29.309Z,8.36
2016-08-04T00:14:37.978Z,8.5
2016-08-04T00:14:47.412Z,8.5
2016-08-04T00:14:56.144Z,8.48
2016-08-04T00:15:04.850Z,8.47
2016-08-04T00:15:13.604Z,8.51
2016-08-04T00:15:23.696Z,8.5
2016-08-04T00:15:32.425Z,8.39
2016-08-04T00:15:41.118Z,8.5
2016-08-04T00:15:49.806Z,8.44
2016-08-04T00:15:58.525Z,8.44
2016-08-04T00:16:08.558Z,8.37
2016-08-04T00:16:18.639Z,8.51
2016-08-04T00:16:27.409Z,8.47
2016-08-04T00:16:36.814Z,8.42
2016-08-04T00:16:46.224Z,8.47
2016-08-04T00:16:54.980Z,8.42
2016-08-04T00:17:03.706Z,8.36
2016-08-04T00:17:13.803Z,8.4
2016-08-04T00:17:22.531Z,8.33
2016-08-04T00:17:31.259Z,8.42
2016-08-04T00:17:39.988Z,8.39
2016-08-04T00:17:48.714Z,8.36
2016-08-04T00:17:57.423Z,8.36
2016-08-04T00:18:07.497Z,8.39
2016-08-04T00:18:16.918Z,8.36
2016-08-04T00:18:25.607Z,8.37
2016-08-04T00:18:34.341Z,8.37
2016-08-04T00:18:43.015Z,8.33
2016-08-04T00:18:51.739Z,8.28
2016-08-04T00:19:01.078Z,8.36
2016-08-04T00:19:10.459Z,8.33
2016-08-04T00:19:19.851Z,8.28
2016-08-04T00:19:37.302Z,8.37
2016-08-04T00:20:03.366Z,8.33
2016-08-04T00:20:12.069Z,8.32
2016-08-04T00:20:20.815Z,8.29
2016-08-04T00:20:30.170Z,8.28
2016-08-04T00:20:38.839Z,8.22
2016-08-04T00:20:48.258Z,8.28
2016-08-04T00:20:56.978Z,8.26
2016-08-04T00:21:05.703Z,8.28
2016-08-04T00:21:15.118Z,8.29
2016-08-04T00:21:23.799Z,8.26
2016-08-04T00:21:32.509Z,8.26
2016-08-04T00:21:41.259Z,8.28
2016-08-04T00:21:50.685Z,8.29
2016-08-04T00:21:59.401Z,8.25
2016-08-04T00:22:08.158Z,8.17
2016-08-04T00:22:16.866Z,8.26
2016-08-04T00:22:25.589Z,8.28
2016-08-04T00:22:34.274Z,8.15
2016-08-04T00:22:42.989Z,8.29
2016-08-04T00:22:52.392Z,8.21
2016-08-04T00:23:01.801Z,8.2
2016-08-04T00:23:10.574Z,8.2
2016-08-04T00:23:19.305Z,8.26
2016-08-04T00:23:28.727Z,8.21
2016-08-04T00:23:37.424Z,8.18
2016-08-04T00:23:46.812Z,8.17
2016-08-04T00:23:55.547Z,8.22
2016-08-04T00:24:04.264Z,8.25
2016-08-04T00:24:12.973Z,8.2
2016-08-04T00:24:21.677Z,8.18
2016-08-04T00:24:30.380Z,8.21
2016-08-04T00:24:39.048Z,8.2
2016-08-04T00:24:47.770Z,8.15
2016-08-04T00:24:57.162Z,8.21
2016-08-04T00:25:05.859Z,8.17
2016-08-04T00:25:16.651Z,8.18
2016-08-04T00:25:25.354Z,8.15
2016-08-04T00:25:35.470Z,8.25
2016-08-04T00:25:45.521Z,8.18
2016-08-04T00:25:54.268Z,8.21
2016-08-04T00:26:02.954Z,8.26
2016-08-04T00:26:11.714Z,8.32
2016-08-04T00:26:21.142Z,8.22
2016-08-04T00:26:29.866Z,8.26
2016-08-04T00:26:38.572Z,8.28
2016-08-04T00:26:47.294Z,8.25
2016-08-04T00:26:56.666Z,8.32
2016-08-04T00:27:06.760Z,8.29
2016-08-04T00:27:15.468Z,8.32
2016-08-04T00:27:24.172Z,8.3
2016-08-04T00:27:32.874Z,8.32
2016-08-04T00:27:41.576Z,8.28
2016-08-04T00:27:50.260Z,8.28
2016-08-04T00:27:58.937Z,8.36
2016-08-04T00:28:07.668Z,8.3
2016-08-04T00:28:17.056Z,8.33
2016-08-04T00:28:25.764Z,8.29
2016-08-04T00:28:34.452Z,8.32
2016-08-04T00:28:43.206Z,8.32
2016-08-04T00:28:51.907Z,8.32
2016-08-04T00:29:01.343Z,8.3
2016-08-04T00:29:10.070Z,8.35
2016-08-04T00:29:19.506Z,8.29
2016-08-04T00:29:28.249Z,8.28
2016-08-04T00:29:36.945Z,8.29
2016-08-04T00:29:45.666Z,8.29
2016-08-04T00:29:54.370Z,8.29
2016-08-04T00:30:03.053Z,8.25
2016-08-04T00:30:12.426Z,8.25
2016-08-04T00:30:21.184Z,8.2
2016-08-04T00:30:30.560Z,8.18
2016-08-04T00:30:39.991Z,8.22
2016-08-04T00:30:48.740Z,8.22
2016-08-04T00:30:57.455Z,8.25
2016-08-04T00:31:06.227Z,8.17
2016-08-04T00:31:14.980Z,8.2
2016-08-04T00:31:23.729Z,8.21
2016-08-04T00:31:32.419Z,8.21
2016-08-04T00:31:41.126Z,8.17
2016-08-04T00:31:49.813Z,8.21
2016-08-04T00:31:58.513Z,8.25
2016-08-04T00:32:07.949Z,8.21
2016-08-04T00:32:17.309Z,8.18
2016-08-04T00:32:26.743Z,8.21
2016-08-04T00:32:36.797Z,8.22
2016-08-04T00:32:46.242Z,8.2
2016-08-04T00:32:54.949Z,8.26
2016-08-04T00:33:03.665Z,8.18
2016-08-04T00:33:13.060Z,8.17
2016-08-04T00:33:21.766Z,8.18
2016-08-04T00:33:31.818Z,8.15
2016-08-04T00:33:40.498Z,8.2
2016-08-04T00:33:49.213Z,8.18
2016-08-04T00:33:57.965Z,8.2
2016-08-04T00:34:06.690Z,8.2
2016-08-04T00:34:15.416Z,8.17
2016-08-04T00:34:24.096Z,8.21
2016-08-04T00:34:41.538Z,8.17
2016-08-04T00:34:50.261Z,8.2
2016-08-04T00:34:58.936Z,8.21
2016-08-04T00:35:07.657Z,8.18
2016-08-04T00:35:16.370Z,8.18
2016-08-04T00:35:25.063Z,8.18
2016-08-04T00:35:33.787Z,8.18
2016-08-04T00:35:42.471Z,8.17
2016-08-04T00:35:51.181Z,8.21
2016-08-04T00:35:59.914Z,8.17
2016-08-04T00:36:08.652Z,8.15
2016-08-04T00:36:17.397Z,8.2
2016-08-04T00:36:26.089Z,8.22
2016-08-04T00:36:34.825Z,8.17
2016-08-04T00:36:43.541Z,8.25
2016-08-04T00:36:52.221Z,8.14
2016-08-04T00:37:00.920Z,8.22
2016-08-04T00:37:10.303Z,8.12
2016-08-04T00:37:19.006Z,8.08
2016-08-04T00:37:27.743Z,8.2
2016-08-04T00:37:36.433Z,8.18
2016-08-04T00:37:45.146Z,8.08
2016-08-04T00:37:55.204Z,8.14
2016-08-04T00:38:04.581Z,8.18
2016-08-04T00:38:13.264Z,8.12
2016-08-04T00:38:22.004Z,8.14
2016-08-04T00:38:31.401Z,8.18
2016-08-04T00:38:40.122Z,8.15
2016-08-04T00:38:49.520Z,8.11
2016-08-04T00:38:58.246Z,8.08
2016-08-04T00:39:07.611Z,8.12
2016-08-04T00:39:16.341Z,8.08
2016-08-04T00:39:25.065Z,8.08
2016-08-04T00:39:34.481Z,8.14
2016-08-04T00:39:43.898Z,8.21
2016-08-04T00:39:52.569Z,8.15
2016-08-04T00:40:01.316Z,8.2
2016-08-04T00:40:10.046Z,8.2
2016-08-04T00:40:18.758Z,8.18
2016-08-04T00:40:28.157Z,8.25
2016-08-04T00:40:37.507Z,8.22
2016-08-04T00:40:46.895Z,8.14
2016-08-04T00:40:56.315Z,8.25
2016-08-04T00:41:05.072Z,8.25
2016-08-04T00:41:13.789Z,8.26
2016-08-04T00:41:22.506Z,8.21
2016-08-04T00:41:31.194Z,8.15
2016-08-04T00:41:39.944Z,8.21
2016-08-04T00:41:49.339Z,8.22
2016-08-04T00:41:58.715Z,8.18
2016-08-04T00:42:07.411Z,8.2
2016-08-04T00:42:16.762Z,8.15
2016-08-04T00:42:26.197Z,8.18
2016-08-04T00:42:34.971Z,8.18
2016-08-04T00:42:43.693Z,8.18
2016-08-04T00:42:53.088Z,8.28
2016-08-04T00:43:01.798Z,8.21
2016-08-04T00:43:10.489Z,8.28
2016-08-04T00:43:19.223Z,8.29
2016-08-04T00:43:28.696Z,8.26
2016-08-04T00:43:37.494Z,8.28
2016-08-04T00:43:46.216Z,8.26
2016-08-04T00:43:54.917Z,8.32
2016-08-04T00:44:04.304Z,8.32
2016-08-04T00:44:13.018Z,8.28
2016-08-04T00:44:22.423Z,8.33
2016-08-04T00:44:31.133Z,8.29
2016-08-04T00:44:39.860Z,8.32
2016-08-04T00:44:48.575Z,8.28
2016-08-04T00:44:58.684Z,8.32
2016-08-04T00:45:08.101Z,8.29
2016-08-04T00:45:16.803Z,8.3
2016-08-04T00:45:25.541Z,8.35
2016-08-04T00:45:34.947Z,8.29
2016-08-04T00:45:44.384Z,8.3
2016-08-04T00:45:53.112Z,8.28
2016-08-04T00:46:01.832Z,8.28
2016-08-04T00:46:10.538Z,8.32
2016-08-04T00:46:19.294Z,8.32
2016-08-04T00:46:28.023Z,8.32
2016-08-04T00:46:36.752Z,8.37
2016-08-04T00:46:46.152Z,8.28
2016-08-04T00:46:55.577Z,8.29
2016-08-04T00:47:04.297Z,8.28
2016-08-04T00:47:13.030Z,8.35
2016-08-04T00:47:22.422Z,8.29
2016-08-04T00:47:31.124Z,8.32
2016-08-04T00:47:40.534Z,8.33
2016-08-04T00:47:49.869Z,8.32
2016-08-04T00:47:58.590Z,8.29
2016-08-04T00:48:08.014Z,8.36
2016-08-04T00:48:17.394Z,8.29
2016-08-04T00:48:26.105Z,8.32
2016-08-04T00:48:36.187Z,8.32
2016-08-04T00:48:44.870Z,8.36
2016-08-04T00:48:54.267Z,8.29
2016-08-04T00:49:03.011Z,8.35
2016-08-04T00:49:12.433Z,8.32
2016-08-04T00:49:21.803Z,8.26
2016-08-04T00:49:40.582Z,8.33
2016-08-04T00:49:49.321Z,8.26
2016-08-04T00:49:58.740Z,8.28
2016-08-04T00:50:07.467Z,8.26
2016-08-04T00:50:16.174Z,8.26
2016-08-04T00:50:24.896Z,8.21
2016-08-04T00:50:33.610Z,8.26
2016-08-04T00:50:42.980Z,8.28
2016-08-04T00:50:53.063Z,8.21
2016-08-04T00:51:01.760Z,8.21
2016-08-04T00:51:10.457Z,8.14
2016-08-04T00:51:19.156Z,8.21
2016-08-04T00:51:27.850Z,8.2
2016-08-04T00:51:36.580Z,8.21
2016-08-04T00:51:45.277Z,8.15
2016-08-04T00:51:54.033Z,8.15
2016-08-04T00:52:02.806Z,8.17
2016-08-04T00:52:11.543Z,8.22
2016-08-04T00:52:20.250Z,8.15
2016-08-04T00:52:28.912Z,8.18
2016-08-04T00:52:37.597Z,8.18
2016-08-04T00:52:46.298Z,8.18
2016-08-04T00:52:55.042Z,8.17
2016-08-04T00:53:03.712Z,8.11
2016-08-04T00:53:13.123Z,8.1
2016-08-04T00:53:21.835Z,8.25
2016-08-04T00:53:31.201Z,8.15
2016-08-04T00:53:39.939Z,8.11
2016-08-04T00:53:48.619Z,8.26
2016-08-04T00:53:58.010Z,8.12
2016-08-04T00:54:07.475Z,8.12
2016-08-04T00:54:16.835Z,8.08
2016-08-04T00:54:26.293Z,8.08
2016-08-04T00:54:35.036Z,8.07
2016-08-04T00:54:44.433Z,8.14
2016-08-04T00:54:53.821Z,8.12
2016-08-04T00:55:02.564Z,8.07
2016-08-04T00:55:11.302Z,8.07
2016-08-04T00:55:20.715Z,8.07
2016-08-04T00:55:29.430Z,8.12
2016-08-04T00:55:38.141Z,8.14
2016-08-04T00:55:46.860Z,8.08
2016-08-04T00:55:55.595Z,8.1
2016-08-04T00:56:05.038Z,8.11
2016-08-04T00:56:13.765Z,8.12
2016-08-04T00:56:22.477Z,8.1
2016-08-04T00:56:31.241Z,8.11
2016-08-04T00:56:39.939Z,8.11
2016-08-04T00:56:48.701Z,8.15
2016-08-04T00:56:57.420Z,8.17
2016-08-04T00:57:06.144Z,8.15
2016-08-04T00:57:15.510Z,8.21
2016-08-04T00:57:24.192Z,8.26
2016-08-04T00:57:32.904Z,8.22
2016-08-04T00:57:41.622Z,8.29
2016-08-04T00:57:50.364Z,8.32
2016-08-04T00:57:59.107Z,8.28
2016-08-04T00:58:08.471Z,8.32
2016-08-04T00:58:17.191Z,8.32
2016-08-04T00:58:25.941Z,8.3
2016-08-04T00:58:34.647Z,8.29
2016-08-04T00:58:43.337Z,8.3
2016-08-04T00:58:52.071Z,8.35
2016-08-04T00:59:00.774Z,8.36
2016-08-04T00:59:10.187Z,8.32
2016-08-04T00:59:19.648Z,8.36
2016-08-04T00:59:29.057Z,8.4
2016-08-04T00:59:37.751Z,8.37
2016-08-04T00:59:47.144Z,8.4
2016-08-04T00:59:57.217Z,8.4
2016-08-04T01:00:05.917Z,8.48
2016-08-04T01:00:14.630Z,8.45
2016-08-04T01:00:23.339Z,8.44
2016-08-04T01:00:33.417Z,8.4
2016-08-04T01:00:42.826Z,8.44
2016-08-04T01:00:51.528Z,8.48
2016-08-04T01:01:00.894Z,8.5
2016-08-04T01:01:10.992Z,8.42
2016-08-04T01:01:19.730Z,8.5
2016-08-04T01:01:29.152Z,8.53
2016-08-04T01:01:37.849Z,8.5
2016-08-04T01:01:46.540Z,8.47
2016-08-04T01:01:55.255Z,8.44
2016-08-04T01:02:05.365Z,8.47
2016-08-04T01:02:14.782Z,8.51
2016-08-04T01:02:24.861Z,8.5
2016-08-04T01:02:33.611Z,8.5
2016-08-04T01:02:42.339Z,8.47
2016-08-04T01:02:51.067Z,8.5
2016-08-04T01:03:00.463Z,8.44
2016-08-04T01:03:09.926Z,8.47
2016-08-04T01:03:18.668Z,8.5
2016-08-04T01:03:28.116Z,8.48
2016-08-04T01:03:37.574Z,8.51
2016-08-04T01:03:46.996Z,8.47
2016-08-04T01:03:56.378Z,8.48
2016-08-04T01:04:05.145Z,8.48
2016-08-04T01:04:13.809Z,8.39
2016-08-04T01:04:22.494Z,8.47
2016-08-04T01:04:31.245Z,8.47
2016-08-04T01:04:48.639Z,8.47
2016-08-04T01:04:57.297Z,8.54
2016-08-04T01:05:06.039Z,8.44
2016-08-04T01:05:15.423Z,8.51
2016-08-04T01:05:24.835Z,8.4
2016-08-04T01:05:34.236Z,8.36
2016-08-04T01:05:42.945Z,8.4
2016-08-04T01:05:52.353Z,8.39
2016-08-04T01:06:01.072Z,8.39
2016-08-04T01:06:09.764Z,8.32
2016-08-04T01:06:18.461Z,8.39
2016-08-04T01:06:27.186Z,8.35
2016-08-04T01:06:35.871Z,8.39
2016-08-04T01:06:44.607Z,8.39
2016-08-04T01:06:53.313Z,8.33
2016-08-04T01:07:02.023Z,8.26
2016-08-04T01:07:10.749Z,8.28
2016-08-04T01:07:19.449Z,8.36
2016-08-04T01:07:28.148Z,8.29
2016-08-04T01:07:38.198Z,8.33
2016-08-04T01:07:47.567Z,8.28
2016-08-04T01:07:56.296Z,8.33
2016-08-04T01:08:05.704Z,8.35
2016-08-04T01:08:15.785Z,8.28
2016-08-04T01:08:25.906Z,8.3
2016-08-04T01:08:34.601Z,8.37
2016-08-04T01:08:43.309Z,8.3
2016-08-04T01:08:52.007Z,8.28
2016-08-04T01:09:01.417Z,8.32
2016-08-04T01:09:10.156Z,8.29
2016-08-04T01:09:18.887Z,8.32
2016-08-04T01:09:27.593Z,8.33
2016-08-04T01:09:36.311Z,8.47
2016-08-04T01:09:45.039Z,8.32
2016-08-04T01:09:53.726Z,8.33
2016-08-04T01:10:03.145Z,8.36
2016-08-04T01:10:12.556Z,8.35
2016-08-04T01:10:21.986Z,8.29
2016-08-04T01:10:30.704Z,8.39
2016-08-04T01:10:40.095Z,8.36
2016-08-04T01:10:48.847Z,8.35
2016-08-04T01:10:57.621Z,8.26
2016-08-04T01:11:06.372Z,8.32
2016-08-04T01:11:15.104Z,8.36
2016-08-04T01:11:24.445Z,8.26
2016-08-04T01:11:33.835Z,8.3
2016-08-04T01:11:42.524Z,8.37
2016-08-04T01:11:51.966Z,8.4
2016-08-04T01:12:01.357Z,8.4
2016-08-04T01:12:10.056Z,8.3
2016-08-04T01:12:18.758Z,8.36
2016-08-04T01:12:28.182Z,8.33
2016-08-04T01:12:37.594Z,8.32
2016-08-04T01:12:46.989Z,8.39
2016-08-04T01:12:55.731Z,8.25
2016-08-04T01:13:04.479Z,8.33
2016-08-04T01:13:13.269Z,8.32
2016-08-04T01:13:21.951Z,8.33
2016-08-04T01:13:30.668Z,8.33
2016-08-04T01:13:39.391Z,8.26
2016-08-04T01:13:48.115Z,8.33
2016-08-04T01:13:56.858Z,8.39
2016-08-04T01:14:07.618Z,8.36
2016-08-04T01:14:17.690Z,8.33
2016-08-04T01:14:26.408Z,8.37
2016-08-04T01:14:36.516Z,8.36
2016-08-04T01:14:45.943Z,8.36
2016-08-04T01:14:54.661Z,8.4
2016-08-04T01:15:03.387Z,8.35
2016-08-04T01:15:12.124Z,8.35
2016-08-04T01:15:21.563Z,8.28
2016-08-04T01:15:30.969Z,8.36
2016-08-04T01:15:39.680Z,8.36
2016-08-04T01:15:48.428Z,8.35
2016-08-04T01:15:57.849Z,8.37
2016-08-04T01:16:07.208Z,8.37
2016-08-04T01:16:17.293Z,8.36
2016-08-04T01:16:26.017Z,8.42
2016-08-04T01:16:34.724Z,8.39
2016-08-04T01:16:44.843Z,8.37
2016-08-04T01:16:53.598Z,8.36
2016-08-04T01:17:03.703Z,8.37
2016-08-04T01:17:13.105Z,8.37
2016-08-04T01:17:21.839Z,8.36
2016-08-04T01:17:31.255Z,8.45
2016-08-04T01:17:40.690Z,8.4
2016-08-04T01:17:50.774Z,8.4
2016-08-04T01:17:59.536Z,8.4
2016-08-04T01:18:08.239Z,8.37
2016-08-04T01:18:16.937Z,8.39
2016-08-04T01:18:25.617Z,8.4
2016-08-04T01:18:35.046Z,8.36
2016-08-04T01:18:43.803Z,8.37
2016-08-04T01:18:52.514Z,8.37
2016-08-04T01:19:01.252Z,8.4
2016-08-04T01:19:10.656Z,8.37
2016-08-04T01:19:20.078Z,8.36
2016-08-04T01:19:28.746Z,8.39
2016-08-04T01:19:37.471Z,8.37
2016-08-04T01:20:03.721Z,8.37
2016-08-04T01:20:12.431Z,8.37
2016-08-04T01:20:21.134Z,8.4
2016-08-04T01:20:29.844Z,8.4
2016-08-04T01:20:38.560Z,8.37
2016-08-04T01:20:47.275Z,8.42
2016-08-04T01:20:55.949Z,8.33
2016-08-04T01:21:04.661Z,8.37
2016-08-04T01:21:13.389Z,8.4
2016-08-04T01:21:22.085Z,8.42
2016-08-04T01:21:30.792Z,8.42
2016-08-04T01:21:39.542Z,8.39
2016-08-04T01:21:48.242Z,8.4
2016-08-04T01:21:56.974Z,8.39
2016-08-04T01:22:05.703Z,8.39
2016-08-04T01:22:14.410Z,8.35
2016-08-04T01:22:23.115Z,8.37
2016-08-04T01:22:31.812Z,8.44
2016-08-04T01:22:40.532Z,8.39
2016-08-04T01:22:49.196Z,8.37
2016-08-04T01:22:57.885Z,8.39
2016-08-04T01:23:06.575Z,8.37
2016-08-04T01:23:15.264Z,8.39
2016-08-04T01:23:23.982Z,8.37
2016-08-04T01:23:32.652Z,8.37
2016-08-04T01:23:41.405Z,8.37
2016-08-04T01:23:50.131Z,8.39
2016-08-04T01:24:00.222Z,8.39
2016-08-04T01:24:08.944Z,8.35
2016-08-04T01:24:17.631Z,8.37
2016-08-04T01:24:26.307Z,8.37
2016-08-04T01:24:35.719Z,8.36
2016-08-04T01:24:44.427Z,8.36
2016-08-04T01:24:53.154Z,8.36
2016-08-04T01:25:01.904Z,8.37
2016-08-04T01:25:11.992Z,8.33
2016-08-04T01:25:21.442Z,8.4
2016-08-04T01:25:30.143Z,8.37
2016-08-04T01:25:38.823Z,8.39
2016-08-04T01:25:47.489Z,8.4
2016-08-04T01:25:56.229Z,8.4
2016-08-04T01:26:04.937Z,8.39
2016-08-04T01:26:13.665Z,8.35
2016-08-04T01:26:22.390Z,8.39
2016-08-04T01:26:31.114Z,8.37
2016-08-04T01:26:39.798Z,8.35
2016-08-04T01:26:49.216Z,8.42
2016-08-04T01:26:58.629Z,8.33
2016-08-04T01:27:07.332Z,8.42
2016-08-04T01:27:16.769Z,8.4
2016-08-04T01:27:25.509Z,8.42
2016-08-04T01:27:34.916Z,8.48
2016-08-04T01:27:44.988Z,8.5
2016-08-04T01:27:54.381Z,8.47
2016-08-04T01:28:03.093Z,8.45
2016-08-04T01:28:11.801Z,8.42
2016-08-04T01:28:20.542Z,8.47
2016-08-04T01:28:29.940Z,8.45
2016-08-04T01:28:38.681Z,8.44
2016-08-04T01:28:48.044Z,8.45
2016-08-04T01:28:56.788Z,8.53
2016-08-04T01:29:06.206Z,8.42
2016-08-04T01:29:14.903Z,8.47
2016-08-04T01:29:23.670Z,8.4
2016-08-04T01:29:32.401Z,8.48
2016-08-04T01:29:41.806Z,8.5
2016-08-04T01:29:51.171Z,8.51
2016-08-04T01:30:00.569Z,8.51
2016-08-04T01:30:09.300Z,8.5
2016-08-04T01:30:18.722Z,8.5
2016-08-04T01:30:27.427Z,8.51
2016-08-04T01:30:37.538Z,8.51
2016-08-04T01:30:46.229Z,8.51
2016-08-04T01:30:56.320Z,8.53
2016-08-04T01:31:05.712Z,8.47
2016-08-04T01:31:15.827Z,8.5
2016-08-04T01:31:24.589Z,8.5
2016-08-04T01:31:33.255Z,8.48
2016-08-04T01:31:44.014Z,8.53
2016-08-04T01:31:54.786Z,8.5
2016-08-04T01:32:03.504Z,8.53
2016-08-04T01:32:12.219Z,8.5
2016-08-04T01:32:20.891Z,8.48
2016-08-04T01:32:29.604Z,8.4
2016-08-04T01:32:39.025Z,8.47
2016-08-04T01:32:47.719Z,8.4
2016-08-04T01:32:56.442Z,8.42
2016-08-04T01:33:05.835Z,8.4
2016-08-04T01:33:14.572Z,8.44
2016-08-04T01:33:23.264Z,8.48
2016-08-04T01:33:32.649Z,8.48
2016-08-04T01:33:41.349Z,8.37
2016-08-04T01:33:50.012Z,8.51
2016-08-04T01:33:59.405Z,8.47
2016-08-04T01:34:09.469Z,8.44
2016-08-04T01:34:18.196Z,8.48
2016-08-04T01:34:27.566Z,8.48
2016-08-04T01:34:36.296Z,8.4
2016-08-04T01:34:45.016Z,8.42
2016-08-04T01:35:02.425Z,8.36
2016-08-04T01:35:11.862Z,8.35
2016-08-04T01:35:20.589Z,8.36
2016-08-04T01:35:29.993Z,8.36
2016-08-04T01:35:38.724Z,8.36
2016-08-04T01:35:47.419Z,8.36
2016-08-04T01:35:56.081Z,8.35
2016-08-04T01:36:05.478Z,8.39
2016-08-04T01:36:15.542Z,8.37
2016-08-04T01:36:24.273Z,8.37
2016-08-04T01:36:32.974Z,8.35
2016-08-04T01:36:42.372Z,8.35
2016-08-04T01:36:51.780Z,8.36
2016-08-04T01:37:00.501Z,8.36
2016-08-04T01:37:09.181Z,8.36
2016-08-04T01:37:19.290Z,8.42
2016-08-04T01:37:28.687Z,8.36
2016-08-04T01:37:37.401Z,8.37
2016-08-04T01:37:46.107Z,8.42
2016-08-04T01:37:56.198Z,8.39
2016-08-04T01:38:06.278Z,8.4
2016-08-04T01:38:15.003Z,8.37
2016-08-04T01:38:23.731Z,8.47
2016-08-04T01:38:33.160Z,8.44
2016-08-04T01:38:41.838Z,8.35
2016-08-04T01:38:50.553Z,8.36
2016-08-04T01:38:59.249Z,8.4
2016-08-04T01:39:08.639Z,8.36
2016-08-04T01:39:18.065Z,8.42
2016-08-04T01:39:26.842Z,8.36
2016-08-04T01:39:35.567Z,8.36
2016-08-04T01:39:44.295Z,8.42
2016-08-04T01:39:53.018Z,8.42
2016-08-04T01:40:02.420Z,8.37
2016-08-04T01:40:12.495Z,8.37
2016-08-04T01:40:21.200Z,8.39
2016-08-04T01:40:29.900Z,8.42
2016-08-04T01:40:38.650Z,8.39
2016-08-04T01:40:47.378Z,8.35
2016-08-04T01:40:56.105Z,8.4
2016-08-04T01:41:04.874Z,8.42
2016-08-04T01:41:14.264Z,8.42
2016-08-04T01:41:23.699Z,8.37
2016-08-04T01:41:33.060Z,8.4
2016-08-04T01:41:41.748Z,8.4
2016-08-04T01:41:51.192Z,8.42
2016-08-04T01:42:00.586Z,8.4
2016-08-04T01:42:10.682Z,8.39
2016-08-04T01:42:19.375Z,8.48
2016-08-04T01:42:28.055Z,8.53
2016-08-04T01:42:37.475Z,8.47
2016-08-04T01:42:46.217Z,8.44
2016-08-04T01:42:54.946Z,8.53
2016-08-04T01:43:04.337Z,8.47
2016-08-04T01:43:14.383Z,8.45
2016-08-04T01:43:23.731Z,8.5
2016-08-04T01:43:33.931Z,8.47
2016-08-04T01:43:43.345Z,8.5
2016-08-04T01:43:52.704Z,8.39
2016-08-04T01:44:01.428Z,8.45
2016-08-04T01:44:11.470Z,8.54
2016-08-04T01:44:21.601Z,8.51
2016-08-04T01:44:30.313Z,8.48
2016-08-04T01:44:39.013Z,8.39
2016-08-04T01:44:48.398Z,8.5
2016-08-04T01:44:57.102Z,8.51
2016-08-04T01:45:05.806Z,8.47
2016-08-04T01:45:15.218Z,8.45
2016-08-04T01:45:23.923Z,8.53
2016-08-04T01:45:32.643Z,8.5
2016-08-04T01:45:41.362Z,8.48
2016-08-04T01:45:50.074Z,8.51
2016-08-04T01:45:58.739Z,8.51
2016-08-04T01:46:07.453Z,8.5
2016-08-04T01:46:16.155Z,8.48
2016-08-04T01:46:24.844Z,8.53
2016-08-04T01:46:33.567Z,8.48
2016-08-04T01:46:42.243Z,8.47
2016-08-04T01:46:50.914Z,8.48
2016-08-04T01:46:59.619Z,8.45
2016-08-04T01:47:08.344Z,8.51
2016-08-04T01:47:17.061Z,8.48
2016-08-04T01:47:25.766Z,8.44
2016-08-04T01:47:34.430Z,8.44
2016-08-04T01:47:43.120Z,8.5
2016-08-04T01:47:51.874Z,8.54
2016-08-04T01:48:01.225Z,8.48
2016-08-04T01:48:09.925Z,8.48
2016-08-04T01:48:18.624Z,8.5
2016-08-04T01:48:28.061Z,8.54
2016-08-04T01:48:37.441Z,8.47
2016-08-04T01:48:46.099Z,8.55
2016-08-04T01:48:54.801Z,8.47
2016-08-04T01:49:03.472Z,8.55
2016-08-04T01:49:12.886Z,8.58
2016-08-04T01:49:22.313Z,8.48
2016-08-04T01:49:31.063Z,8.55
2016-08-04T01:49:39.759Z,8.53
2016-08-04T01:49:49.830Z,8.55
2016-08-04T01:50:07.311Z,8.57
2016-08-04T01:50:16.063Z,8.53
2016-08-04T01:50:25.468Z,8.55
2016-08-04T01:50:34.194Z,8.47
2016-08-04T01:50:43.586Z,8.55
2016-08-04T01:50:52.266Z,8.48
2016-08-04T01:51:00.975Z,8.53
2016-08-04T01:51:09.675Z,8.5
2016-08-04T01:51:19.809Z,8.48
2016-08-04T01:51:29.220Z,8.48
2016-08-04T01:51:37.962Z,8.48
2016-08-04T01:51:47.335Z,8.45
2016-08-04T01:51:56.048Z,8.53
2016-08-04T01:52:04.741Z,8.5
2016-08-04T01:52:13.467Z,8.47
2016-08-04T01:52:22.214Z,8.5
2016-08-04T01:52:30.963Z,8.51
2016-08-04T01:52:39.665Z,8.5
2016-08-04T01:52:49.069Z,8.5
2016-08-04T01:52:57.783Z,8.5
2016-08-04T01:53:06.525Z,8.47
2016-08-04T01:53:15.210Z,8.5
2016-08-04T01:53:23.939Z,8.48
2016-08-04T01:53:32.667Z,8.5
2016-08-04T01:53:42.021Z,8.47
2016-08-04T01:53:50.750Z,8.54
2016-08-04T01:53:59.461Z,8.55
2016-08-04T01:54:08.179Z,8.39
2016-08-04T01:54:17.571Z,8.54
2016-08-04T01:54:26.296Z,8.53
2016-08-04T01:54:35.004Z,8.55
2016-08-04T01:54:43.715Z,8.57
2016-08-04T01:54:53.119Z,8.57
2016-08-04T01:55:02.541Z,8.57
2016-08-04T01:55:11.229Z,8.53
2016-08-04T01:55:19.954Z,8.48
2016-08-04T01:55:28.670Z,8.48
2016-08-04T01:55:37.356Z,8.57
2016-08-04T01:55:46.025Z,8.48
2016-08-04T01:55:55.446Z,8.44
2016-08-04T01:56:04.842Z,8.47
2016-08-04T01:56:13.593Z,8.55
2016-08-04T01:56:22.320Z,8.55
2016-08-04T01:56:31.044Z,8.47
2016-08-04T01:56:40.448Z,8.5
2016-08-04T01:56:50.555Z,8.5
2016-08-04T01:56:59.239Z,8.54
2016-08-04T01:57:07.963Z,8.47
2016-08-04T01:57:16.734Z,8.45
2016-08-04T01:57:26.137Z,8.51
2016-08-04T01:57:35.509Z,8.48
2016-08-04T01:57:44.904Z,8.45
2016-08-04T01:57:53.650Z,8.47
2016-08-04T01:58:02.346Z,8.45
2016-08-04T01:58:12.473Z,8.42
2016-08-04T01:58:21.867Z,8.44
2016-08-04T01:58:30.567Z,8.48
2016-08-04T01:58:39.336Z,8.5
2016-08-04T01:58:48.047Z,8.47
2016-08-04T01:58:56.758Z,8.47
2016-08-04T01:59:05.443Z,8.47
2016-08-04T01:59:14.186Z,8.47
2016-08-04T01:59:22.915Z,8.53
2016-08-04T01:59:32.371Z,8.45
2016-08-04T01:59:41.803Z,8.48
2016-08-04T01:59:50.523Z,8.5
2016-08-04T01:59:59.933Z,8.51
2016-08-04T02:00:08.637Z,8.47
2016-08-04T02:00:18.049Z,8.48
2016-08-04T02:00:26.750Z,8.47
2016-08-04T02:00:36.161Z,8.45
2016-08-04T02:00:44.827Z,8.44
2016-08-04T02:00:54.207Z,8.5
2016-08-04T02:01:02.935Z,8.53
2016-08-04T02:01:11.633Z,8.53
2016-08-04T02:01:20.323Z,8.5
2016-08-04T02:01:30.365Z,8.48
2016-08-04T02:01:39.066Z,8.54
2016-08-04T02:01:47.780Z,8.53
2016-08-04T02:01:56.517Z,8.44